CMB832 Details

Departure: Bagram Air Base (OAIX)
Arrival: Ramstein Air Force Base (ETAR)
Notes: USTRANSCOM CONTRACT FLIGHT


Current Weather Information
OAIX 232158Z 00000KT 9000 BR FEW009 BKN070 13/12 A2996 RMK AO2A CIG 055 RWY21 SLPNO T01260121 $
ETAR 232156Z AUTO 00000KT 9999 CLR 09/08 A3003 RMK AO2 SLP171 T00880082 $